Rosetown East, Saskatchewan

2:10 PM CST on October 31, 2014 (GMT -0600)
Harwell Farms | Change Station
CLOSE
Current Station
Personal Weather Station
Location: Rosetown, SK
Elevation: 1906 ft
Nearby Weather Stations

Elev 1906 ft 51.55 °N, 108.02 °W | Updated 1 minute ago

Mostly Cloudy
Mostly Cloudy
49.8 °F
Feels Like 44 °F
N
18.0
Wind Variable Wind from South
Gusts 20.0 mph

Today is forecast to be nearly the same temperature as yesterday.

Today
High -- | Low -- °F
--% Chance of Precip.
Yesterday
High -- | Low -- °F
Precip. -- in
8:03 AM 5:45 PM
First Quarter, 58% visible
Pressure 29.74 in
Visibility 15.0 miles
Clouds Few 8000 ft
Scattered Clouds 12000 ft
Mostly Cloudy 26000 ft
Windchill 44 °F
Dew Point 35 °F
Humidity 56%
Rainfall 0.00 in
Snow Depth Not available.
UV 1 out of 12
Pollen Not available.
Air Quality Not available.
Flu Activity Not available.
METAR CYKY 312000Z 16014G20KT 15SM FEW080 SCT120 BKN260 10/02 A2969 RMK AC1AC2CI3 SLP071 DENSITY ALT 2400FT

More Conditions Fewer Conditions

Pressure 29.74 in
Visibility 15.0 miles
Clouds Few 8000 ft
Scattered Clouds 12000 ft
Mostly Cloudy 26000 ft
Windchill 44 °F
Dew Point 35 °F
Humidity 56%
Rainfall 0.00 in
Snow Depth Not available.
UV 1 out of 12
Pollen Not available.
Air Quality Not available.
Flu Activity Not available.
METAR CYKY 312000Z 16014G20KT 15SM FEW080 SCT120 BKN260 10/02 A2969 RMK AC1AC2CI3 SLP071 DENSITY ALT 2400FT

More Conditions Fewer Conditions

10-Day Weather Forecast

Almanac

Astronomy

Oct. 31, 2014 Rise Set
Actual Time
Civil Twilight
Nautical Twilight
Astronomical Twilight
Moon
Length of Visible Light
Length of Day
Tomorrow will be .
, % of the Moon is Illuminated

Today's Extremes

Country Highs Country Lows

Community

WunderPhotos

Upload Photos

1,766,717 photos uploaded!

WunderBlogs® & News

Nearby

Air Quality

  Air Quality AQ Index Pollutant
Not available.

Snow Depth

Station Depth Elevation

Earthquake Activity

City Distance Mag. Time & Date
Minimum magnitude displayed is 2.5.

Coastal Water Temperatures

Place Temperature

Nearby Weather Stations